Readfield, Maine
Current Conditions -  °F | °C
As of 8:53 AM on Friday 24 Oct 2014 (Local Time) from KAUG Reporting Station
Haze Haze  
Wind Chill: 39°   Ceiling: 700
Heat Index: 45°   Visibility: 5mi
Dew Point: 44°   Wind: 14mph
Humidity: 97%   Direction: 350°N
Pressure: 29.7"   Gusts: NA
Location:  44.39°N, 69.97°W
Report Text: KAUG 241253Z AUTO 35012KT 5SM BR OVC007 07/07 A2970 RMK AO2 RAB15E42 SLP059 P0000 T00720067
Loading
Personal Weather Stations






























Interactive Weather Map
Tropical Storm Tracking
New forecast layout! Learn more

10-Day Weather Forecast

Advertisements
Track Severe Weather on mobile